Time;durP1;ratioP1;P1;durP2;ratioP2;P2;SDS_P1;SDS_P2;PMS_P1;PMS_P2;Temp;Humidity;BMP_temperature;BMP_pressure;BME280_temperature;BME280_humidity;BME280_pressure;Samples;Min_cycle;Max_cycle;Signal;HPM_P1;HPM_P2
2023/10/16 00:03:50;;;;;;;28.13;7.78;;;;;;;9.92;98.82;99783.34;10417772;28;20041;-81
2023/10/16 00:08:53;;;;;;;20.13;7.82;;;;;;;9.56;98.71;99701.72;10457441;28;20060;-81
2023/10/16 00:13:56;;;;;;;17.40;6.80;;;;;;;10.12;99.43;99764.28;10457352;28;20095;-81
2023/10/16 00:18:59;;;;;;;27.50;8.30;;;;;;;9.61;99.82;99677.31;10456651;28;20053;-81
2023/10/16 00:24:00;;;;;;;25.42;9.60;;;;;;;9.39;100.00;99644.50;10456267;28;20033;-78
2023/10/16 00:34:20;;;;;;;20.40;6.20;;;;;;;10.17;100.00;99738.00;10455731;28;20037;-82
2023/10/16 00:39:26;;;;;;;20.13;5.97;;;;;;;10.43;100.00;99775.63;10455794;28;20095;-83
2023/10/16 00:44:33;;;;;;;17.75;6.65;;;;;;;10.09;100.00;99719.53;10438318;28;20040;-84
2023/10/16 00:49:38;;;;;;;19.90;6.35;;;;;;;10.07;100.00;99706.44;10455605;28;20048;-82
2023/10/16 00:54:40;;;;;;;15.73;6.60;;;;;;;10.28;100.00;99745.59;10454553;28;20037;-79
2023/10/16 00:59:42;;;;;;;16.33;5.57;;;;;;;10.32;100.00;99730.97;10455162;28;20084;-80
2023/10/16 01:04:46;;;;;;;16.77;6.95;;;;;;;9.76;100.00;99638.41;10454682;28;20061;-81
2023/10/16 01:09:47;;;;;;;18.00;7.55;;;;;;;10.72;100.00;99760.75;10454642;28;20071;-77
2023/10/16 01:14:48;;;;;;;17.95;8.55;;;;;;;10.14;100.00;99669.38;10447428;28;20412;-78
2023/10/16 01:19:48;;;;;;;28.23;8.77;;;;;;;9.80;100.00;99609.69;10414757;28;20044;-78
2023/10/16 01:24:51;;;;;;;23.35;9.38;;;;;;;10.44;100.00;99694.13;10413052;28;20042;-79
2023/10/16 01:29:52;;;;;;;27.80;9.30;;;;;;;10.87;100.00;99755.44;10412692;28;20068;-78
2023/10/16 01:34:53;;;;;;;36.83;10.00;;;;;;;10.58;100.00;99711.09;10412524;28;20037;-78
2023/10/16 01:39:54;;;;;;;25.08;8.98;;;;;;;10.75;100.00;99744.44;10412377;28;20037;-79
2023/10/16 01:44:55;;;;;;;27.60;8.35;;;;;;;10.79;100.00;99753.69;10413081;28;20037;-78
2023/10/16 01:49:55;;;;;;;98.57;12.82;;;;;;;10.91;100.00;99746.06;10413371;28;20408;-79
2023/10/16 01:54:57;;;;;;;88.22;13.35;;;;;;;10.98;100.00;99744.34;10412070;28;20038;-81
2023/10/16 01:59:57;;;;;;;197.55;17.05;;;;;;;10.49;100.00;99667.88;10420692;28;20045;-78
2023/10/16 02:04:58;;;;;;;99.93;13.90;;;;;;;10.21;100.00;99627.84;10420256;28;20045;-87
2023/10/16 02:09:59;;;;;;;228.50;18.15;;;;;;;10.64;100.00;99681.94;10421233;28;20100;-89
2023/10/16 02:15:05;;;;;;;213.77;18.40;;;;;;;10.35;100.00;99619.09;10419430;28;20523;-89
2023/10/16 02:20:11;;;;;;;217.63;20.33;;;;;;;10.38;100.00;99607.25;10420923;28;20076;-89
2023/10/16 02:25:12;;;;;;;217.18;19.15;;;;;;;10.03;100.00;99544.09;10405606;28;20040;-90
2023/10/16 02:30:28;;;;;;;207.20;20.38;;;;;;;11.05;100.00;99684.09;10406758;28;20047;-90
2023/10/16 02:35:29;;;;;;;201.52;22.55;;;;;;;11.09;100.00;99677.38;10424948;28;20091;-90
2023/10/16 02:47:47;;;;;;;200.48;23.42;;;;;;;9.80;100.00;99437.28;10425232;28;20049;-90
2023/10/16 02:53:21;;;;;;;235.23;23.58;;;;;;;9.90;100.00;99451.09;10347233;28;20046;-86
2023/10/16 03:17:10;;;;;;;247.52;23.52;;;;;;;10.93;100.00;99588.09;10251862;29;20143;-89
2023/10/16 03:22:52;;;;;;;137.18;20.38;;;;;;;10.73;100.00;99540.06;10120704;29;20067;-88
2023/10/16 04:22:16;;;;;;;173.68;25.48;;;;;;;10.46;100.00;99400.88;10333795;28;20054;-75
2023/10/16 04:32:37;;;;;;;113.05;23.30;;;;;;;12.06;100.00;99644.13;10334154;28;20042;-79
2023/10/16 04:37:40;;;;;;;105.28;23.27;;;;;;;12.12;100.00;99632.69;10333457;28;20085;-75
2023/10/16 04:58:27;;;;;;;68.10;19.03;;;;;;;11.68;100.00;99482.13;10372840;28;20136;-83
2023/10/16 05:03:24;;;;;;;79.82;20.02;;;;;;;12.93;100.00;99648.03;10370775;28;20287;-83
2023/10/16 05:08:31;;;;;;;75.85;19.63;;;;;;;13.14;100.00;99636.41;10332463;28;20038;-83
2023/10/16 05:13:43;;;;;;;83.95;21.98;;;;;;;13.38;100.00;99629.69;10331630;28;20077;-83
2023/10/16 05:18:46;;;;;;;92.93;21.00;;;;;;;13.88;100.00;99635.44;10330811;28;20144;-83
2023/10/16 06:17:15;;;;;;;25.30;10.63;;;;;;;14.81;100.00;99547.81;10330715;28;20149;-81
2023/10/16 06:22:16;;;;;;;27.27;11.68;;;;;;;15.21;100.00;99597.56;10329812;28;20517;-81
2023/10/16 06:27:20;;;;;;;30.27;11.73;;;;;;;14.80;100.00;99521.28;10330316;28;20074;-82
2023/10/16 06:32:25;;;;;;;39.95;11.70;;;;;;;15.35;100.00;99585.72;10330994;28;20565;-83
2023/10/16 06:37:28;;;;;;;29.30;11.55;;;;;;;15.40;100.00;99583.19;10331104;28;20054;-82
2023/10/16 06:42:30;;;;;;;35.50;13.13;;;;;;;15.54;100.00;99573.22;10332730;28;20461;-82
2023/10/16 06:47:36;;;;;;;26.08;12.35;;;;;;;15.49;100.00;99547.09;10337551;28;20041;-82
2023/10/16 06:52:39;;;;;;;32.25;12.05;;;;;;;15.53;100.00;99545.63;10338011;28;20048;-83
2023/10/16 06:57:40;;;;;;;30.52;11.45;;;;;;;15.90;100.00;99563.63;10337033;28;20137;-82
2023/10/16 07:02:42;;;;;;;24.58;10.57;;;;;;;15.93;100.00;99523.84;10337696;28;20125;-83
2023/10/16 07:07:47;;;;;;;41.92;17.50;;;;;;;16.50;99.08;99571.00;10336488;28;20046;-83
2023/10/16 07:12:58;;;;;;;27.85;11.93;;;;;;;16.66;97.56;99565.00;10336411;28;20508;-83
2023/10/16 07:18:04;;;;;;;35.08;14.48;;;;;;;16.66;95.91;99555.13;10336261;28;20061;-83
2023/10/16 07:23:10;;;;;;;29.48;14.32;;;;;;;16.80;95.03;99544.22;10335460;28;20070;-83
2023/10/16 07:28:11;;;;;;;34.65;13.43;;;;;;;16.92;94.05;99546.94;10336535;28;20050;-83
2023/10/16 07:33:15;;;;;;;23.33;9.70;;;;;;;16.65;92.79;99489.09;10336746;28;20042;-82
2023/10/16 07:38:22;;;;;;;24.38;10.38;;;;;;;17.23;92.26;99554.72;10336713;28;20046;-89
2023/10/16 07:43:28;;;;;;;29.67;8.48;;;;;;;17.27;90.99;99542.47;10336339;28;20125;-82
2023/10/16 07:48:29;;;;;;;23.88;7.97;;;;;;;17.27;90.32;99512.94;10336184;28;20085;-90
2023/10/16 07:53:29;;;;;;;14.25;6.15;;;;;;;17.61;88.68;99556.16;10334859;28;20092;-85
2023/10/16 07:58:33;;;;;;;19.00;6.78;;;;;;;17.71;87.43;99534.06;10335521;28;20046;-83
2023/10/16 08:03:37;;;;;;;;;;;;;;;18.10;85.46;99543.31;10335001;28;20497;-82
2023/10/16 08:08:39;;;;;;;29.10;9.32;;;;;;;18.03;85.88;99521.91;10335373;28;19913;-90
2023/10/16 08:13:46;;;;;;;21.33;6.72;;;;;;;18.12;84.61;99511.63;10334986;28;20043;-82
2023/10/16 08:18:51;;;;;;;19.42;6.43;;;;;;;18.47;83.34;99518.78;10334795;28;20062;-82
2023/10/16 08:23:56;;;;;;;16.73;5.38;;;;;;;18.22;81.63;99481.47;10334543;28;20084;-93
2023/10/16 08:34:35;;;;;;;15.68;5.93;;;;;;;18.48;81.12;99458.53;10300578;28;20057;-83
2023/10/16 08:39:44;;;;;;;18.30;5.00;;;;;;;18.67;80.56;99461.84;10333446;28;20042;-87
2023/10/16 08:44:51;;;;;;;15.40;5.43;;;;;;;18.71;78.98;99497.97;10334500;28;20096;-84
2023/10/16 08:49:55;;;;;;;15.55;4.88;;;;;;;18.71;79.29;99474.56;10334203;28;20510;-83
2023/10/16 08:55:03;;;;;;;20.38;5.45;;;;;;;18.68;78.54;99469.66;10332595;28;20460;-86
2023/10/16 09:00:10;;;;;;;19.77;5.75;;;;;;;18.74;78.59;99496.69;10332808;28;20086;-83
2023/10/16 09:05:11;;;;;;;25.10;6.15;;;;;;;18.56;79.35;99463.53;10332746;28;20501;-83
2023/10/16 09:10:12;;;;;;;20.45;6.07;;;;;;;19.13;77.31;99438.41;10315331;28;20091;-82
2023/10/16 09:15:15;;;;;;;23.20;5.45;;;;;;;19.43;74.85;99384.16;10333329;28;20137;-86
2023/10/16 09:20:17;;;;;;;20.20;5.05;;;;;;;20.24;73.53;99459.00;10332726;28;20065;-83
2023/10/16 09:25:23;;;;;;;20.33;6.10;;;;;;;20.14;71.91;99440.03;10332733;28;20042;-85
2023/10/16 09:30:28;;;;;;;19.20;5.18;;;;;;;19.75;71.75;99365.47;10315702;28;20049;-84
2023/10/16 09:35:32;;;;;;;20.80;5.28;;;;;;;19.87;71.42;99373.41;10330776;28;20042;-82
2023/10/16 09:40:37;;;;;;;65.53;36.35;;;;;;;20.38;71.06;99437.84;10332732;28;20494;-82
2023/10/16 09:45:38;;;;;;;29.63;7.80;;;;;;;20.59;70.03;99433.50;10332064;28;20049;-83
2023/10/16 09:50:39;;;;;;;27.27;6.45;;;;;;;20.72;68.86;99423.06;10332553;28;20048;-83
2023/10/16 09:55:48;;;;;;;21.10;4.88;;;;;;;21.16;68.25;99428.28;10331521;28;20042;-82
2023/10/16 10:00:51;;;;;;;24.08;6.05;;;;;;;21.23;67.34;99408.31;10329787;28;20391;-83
2023/10/16 10:06:07;;;;;;;29.25;6.07;;;;;;;21.48;66.48;99407.69;10314290;28;20050;-83
2023/10/16 10:16:35;;;;;;;23.92;5.95;;;;;;;20.69;66.22;99349.91;10333818;28;20049;-83
2023/10/16 10:21:44;;;;;;;24.13;10.07;;;;;;;20.62;66.09;99320.47;10340505;28;20089;-84
2023/10/16 10:26:48;;;;;;;22.17;6.22;;;;;;;21.20;65.04;99379.94;10339887;28;20061;-84
2023/10/16 10:31:51;;;;;;;27.65;5.18;;;;;;;20.90;64.93;99330.09;10339904;28;20035;-85
2023/10/16 10:36:53;;;;;;;18.75;4.85;;;;;;;20.72;64.94;99303.53;10338005;28;20050;-83
2023/10/16 10:42:23;;;;;;;20.13;5.88;;;;;;;21.23;64.65;99376.72;10338152;28;20077;-83
2023/10/16 10:47:30;;;;;;;21.80;5.45;;;;;;;21.36;63.78;99392.50;10336918;28;20050;-84
2023/10/16 10:52:32;;;;;;;21.35;5.43;;;;;;;21.12;63.96;99324.56;10336573;28;20030;-87
2023/10/16 10:57:34;;;;;;;17.15;4.63;;;;;;;21.31;63.40;99360.03;10336898;28;20061;-82
2023/10/16 11:07:45;;;;;;;26.50;9.68;;;;;;;21.55;62.93;99394.75;10337178;28;20137;-83
2023/10/16 11:12:45;;;;;;;27.02;5.82;;;;;;;21.35;63.19;99361.13;10327517;28;20030;-83
2023/10/16 11:17:46;;;;;;;18.05;7.43;;;;;;;21.51;63.47;99378.28;10321150;28;20066;-86
2023/10/16 11:22:47;;;;;;;27.15;5.32;;;;;;;21.09;63.09;99291.84;10311139;28;20070;-90
2023/10/16 11:27:53;;;;;;;16.98;4.35;;;;;;;21.51;63.08;99358.50;10296071;28;20085;-85
2023/10/16 11:32:55;;;;;;;18.48;4.30;;;;;;;21.33;62.73;99330.88;10277812;28;20131;-86
2023/10/16 11:38:13;;;;;;;15.60;4.00;;;;;;;21.41;61.94;99373.59;10295871;28;20042;-84
2023/10/16 11:43:18;;;;;;;18.35;4.68;;;;;;;21.02;61.76;99311.00;10296253;28;20070;-87
2023/10/16 11:53:38;;;;;;;15.68;4.32;;;;;;;21.24;61.61;99340.56;10311268;28;20117;-83
2023/10/16 11:58:39;;;;;;;;;;;;;;;21.61;61.41;99369.38;10294770;28;20572;-88
2023/10/16 12:03:40;;;;;;;13.18;4.28;;;;;;;21.40;62.09;99357.69;10293918;28;19917;-84
2023/10/16 12:08:41;;;;;;;23.95;7.65;;;;;;;21.25;61.75;99325.16;10295734;28;20494;-81
2023/10/16 12:13:42;;;;;;;52.17;25.27;;;;;;;20.98;61.58;99296.41;10329041;28;20042;-80
2023/10/16 12:18:43;;;;;;;30.30;11.23;;;;;;;20.88;61.71;99290.94;10334804;28;20054;-81
2023/10/16 12:23:44;;;;;;;24.40;6.05;;;;;;;20.84;61.26;99309.53;10334562;28;20042;-83
2023/10/16 12:28:44;;;;;;;28.20;12.68;;;;;;;20.84;61.98;99323.03;10334270;28;20046;-81
2023/10/16 12:33:46;;;;;;;17.52;5.13;;;;;;;20.61;62.21;99286.47;10309896;28;20046;-81
2023/10/16 12:38:47;;;;;;;17.30;4.32;;;;;;;20.87;62.11;99337.91;10293165;28;20407;-83
2023/10/16 12:43:49;;;;;;;21.10;5.15;;;;;;;20.92;62.17;99368.44;10294116;28;20043;-81
2023/10/16 12:48:49;;;;;;;28.73;4.95;;;;;;;20.79;62.96;99363.50;10293213;28;20042;-84
2023/10/16 12:53:51;;;;;;;16.83;4.07;;;;;;;20.20;62.98;99279.91;10293315;28;20047;-82
2023/10/16 12:58:52;;;;;;;34.28;4.50;;;;;;;20.83;63.27;99369.19;10292990;28;20042;-82
2023/10/16 13:03:59;;;;;;;24.85;5.07;;;;;;;20.57;63.36;99327.69;10292724;28;20583;-84
2023/10/16 13:09:02;;;;;;;24.83;5.18;;;;;;;20.71;63.73;99369.38;10292380;28;20065;-83
2023/10/16 13:14:27;;;;;;;28.60;4.72;;;;;;;19.87;64.16;99260.22;10293463;28;20047;-86
2023/10/16 13:19:27;;;;;;;24.17;4.55;;;;;;;19.67;64.42;99246.53;10292131;28;20055;-83
2023/10/16 13:24:28;;;;;;;16.67;4.43;;;;;;;19.00;64.84;99167.72;10291670;28;20043;-82
2023/10/16 13:29:30;;;;;;;19.13;4.32;;;;;;;18.75;65.34;99164.72;10291567;28;20054;-83
2023/10/16 13:34:32;;;;;;;21.48;4.93;;;;;;;18.68;66.08;99165.69;10274894;28;20043;-83
2023/10/16 13:39:38;;;;;;;22.25;4.43;;;;;;;18.43;66.69;99158.09;10296687;28;20045;-83
2023/10/16 13:44:40;;;;;;;46.22;5.57;;;;;;;19.28;68.38;99339.00;10313907;28;20046;-82
2023/10/16 13:49:41;;;;;;;34.88;4.38;;;;;;;18.28;69.31;99232.34;10293136;28;20042;-82
2023/10/16 13:54:42;;;;;;;23.73;4.95;;;;;;;18.88;70.90;99358.09;10317408;28;20046;-81
2023/10/16 13:59:43;;;;;;;62.30;6.95;;;;;;;18.28;72.09;99307.59;10339458;28;20042;-81
2023/10/16 14:04:46;;;;;;;29.27;6.30;;;;;;;17.94;73.28;99312.94;10339588;28;20054;-82
2023/10/16 14:09:49;;;;;;;45.63;16.07;;;;;;;17.57;74.28;99346.34;10340204;28;20497;-81
2023/10/16 14:14:51;;;;;;;35.43;7.33;;;;;;;16.69;75.77;99274.94;10339552;28;20038;-81
2023/10/16 14:19:52;;;;;;;78.88;19.25;;;;;;;16.74;77.41;99338.59;10339401;28;20065;-82
2023/10/16 14:24:53;;;;;;;31.10;7.53;;;;;;;16.88;78.79;99407.09;10339244;28;20133;-81
2023/10/16 14:29:59;;;;;;;37.72;8.70;;;;;;;16.20;79.98;99328.72;10339093;28;20046;-81
2023/10/16 14:35:00;;;;;;;55.75;8.32;;;;;;;16.26;80.40;99372.56;10338100;28;20038;-81
2023/10/16 14:40:04;;;;;;;71.13;9.13;;;;;;;16.09;82.34;99388.44;10337739;28;20494;-82
2023/10/16 14:45:06;;;;;;;28.70;8.48;;;;;;;15.58;83.25;99354.06;10323537;28;20034;-83
2023/10/16 14:50:07;;;;;;;153.02;14.15;;;;;;;15.38;84.15;99368.53;10338847;28;20097;-83
2023/10/16 14:55:08;;;;;;;68.40;13.80;;;;;;;15.09;84.38;99348.66;10322618;28;20101;-83
2023/10/16 15:00:12;;;;;;;62.08;18.52;;;;;;;15.64;84.21;99433.50;10295457;28;20268;-84
2023/10/16 15:05:15;;;;;;;57.67;21.35;;;;;;;15.18;84.03;99339.28;10297633;28;20089;-83
2023/10/16 15:10:21;;;;;;;73.18;20.75;;;;;;;15.19;84.07;99324.88;10297758;28;20054;-83
2023/10/16 15:15:22;;;;;;;75.13;21.83;;;;;;;15.26;83.90;99344.38;10297551;28;20038;-83
2023/10/16 15:20:23;;;;;;;70.05;19.67;;;;;;;15.84;84.51;99444.81;10309464;28;20061;-76
2023/10/16 15:25:24;;;;;;;89.10;19.95;;;;;;;15.80;85.25;99451.69;10336875;28;20042;-87
2023/10/16 15:30:27;;;;;;;56.72;16.80;;;;;;;15.29;85.61;99383.25;10334922;28;20038;-85
2023/10/16 15:35:29;;;;;;;40.78;14.80;;;;;;;15.67;85.89;99441.06;10334417;28;20050;-81
2023/10/16 15:40:30;;;;;;;70.57;21.27;;;;;;;15.70;85.72;99446.84;10323474;28;20467;-82
2023/10/16 15:45:37;;;;;;;79.75;30.95;;;;;;;15.40;86.22;99368.28;10323629;28;20133;-82
2023/10/16 15:50:41;;;;;;;79.00;29.42;;;;;;;15.90;85.35;99438.56;10303329;28;20137;-82
2023/10/16 15:55:48;;;;;;;;;;;;;;;15.97;84.35;99455.41;10335068;28;20068;-83
2023/10/16 16:00:52;;;;;;;50.67;19.25;;;;;;;15.33;85.46;99397.00;10295489;28;19918;-83
2023/10/16 16:05:53;;;;;;;56.15;19.25;;;;;;;15.45;85.91;99401.38;10295467;28;20066;-81
2023/10/16 16:10:55;;;;;;;59.88;19.05;;;;;;;15.32;86.25;99385.47;10294850;28;20042;-81
2023/10/16 16:16:00;;;;;;;48.25;17.90;;;;;;;15.45;86.47;99409.41;10293495;28;20039;-82
2023/10/16 16:21:04;;;;;;;55.38;19.33;;;;;;;15.58;87.03;99437.06;10294621;28;20411;-83
2023/10/16 16:26:05;;;;;;;61.28;20.58;;;;;;;14.72;87.40;99297.00;10292897;28;20417;-82
2023/10/16 16:31:07;;;;;;;63.00;18.90;;;;;;;15.61;87.66;99433.94;10297390;28;20133;-81
2023/10/16 16:36:11;;;;;;;49.05;19.88;;;;;;;14.60;87.93;99292.38;10325595;28;20511;-80
2023/10/16 16:41:12;;;;;;;;;;;;;;;15.72;88.64;99457.31;10333951;28;20042;-79
2023/10/16 16:46:12;;;;;;;30.42;15.48;;;;;;;15.41;87.76;99456.38;10333527;28;19913;-80
2023/10/16 16:51:14;;;;;;;42.58;17.30;;;;;;;15.21;88.35;99437.03;10325214;28;20041;-80
2023/10/16 16:56:15;;;;;;;49.17;19.52;;;;;;;14.92;88.63;99438.50;10300932;28;20125;-80
2023/10/16 17:01:16;;;;;;;40.35;17.50;;;;;;;14.64;89.38;99444.28;10292061;28;20098;-81
2023/10/16 17:06:17;;;;;;;39.85;15.85;;;;;;;14.57;90.19;99468.41;10327115;28;20074;-78
2023/10/16 17:11:17;;;;;;;34.10;14.30;;;;;;;14.11;90.79;99434.69;10306629;28;20046;-82
2023/10/16 17:16:18;;;;;;;40.65;13.82;;;;;;;14.09;91.47;99458.13;10283809;28;20079;-80
2023/10/16 17:21:19;;;;;;;26.25;11.40;;;;;;;14.28;91.92;99499.13;10272021;28;20113;-79
2023/10/16 17:26:20;;;;;;;43.75;14.60;;;;;;;14.10;92.15;99494.50;10269215;28;20043;-79
2023/10/16 17:31:21;;;;;;;31.25;13.55;;;;;;;13.19;92.35;99378.75;10277221;28;20043;-77
2023/10/16 17:36:23;;;;;;;33.78;12.43;;;;;;;13.32;92.69;99438.47;10254910;28;20043;-77
2023/10/16 17:41:24;;;;;;;52.15;13.48;;;;;;;13.39;92.99;99476.59;10291872;28;20054;-78
2023/10/16 17:46:25;;;;;;;35.53;12.25;;;;;;;13.20;93.17;99470.25;10291948;28;20081;-78
2023/10/16 17:51:28;;;;;;;24.85;11.02;;;;;;;13.31;93.42;99500.81;10290901;28;20077;-82
2023/10/16 17:56:29;;;;;;;33.40;11.02;;;;;;;12.78;93.67;99450.97;10291420;28;20043;-81
2023/10/16 18:01:30;;;;;;;57.00;12.27;;;;;;;12.39;94.07;99419.78;10291548;28;20035;-83
2023/10/16 18:06:35;;;;;;;21.05;9.30;;;;;;;12.65;94.06;99497.03;10290800;28;20038;-83
2023/10/16 18:11:39;;;;;;;23.20;10.52;;;;;;;12.65;94.51;99520.22;10291219;28;20490;-79
2023/10/16 18:16:42;;;;;;;31.25;11.05;;;;;;;12.27;94.86;99486.13;10257599;28;20051;-80
2023/10/16 18:21:47;;;;;;;23.27;10.38;;;;;;;12.01;94.34;99438.91;10282224;28;20597;-82
2023/10/16 18:26:49;;;;;;;28.27;10.77;;;;;;;12.22;94.91;99508.00;10291654;28;20043;-81
2023/10/16 18:31:50;;;;;;;36.25;19.38;;;;;;;12.19;95.21;99520.91;10246708;28;20054;-80
2023/10/16 18:36:52;;;;;;;53.45;23.33;;;;;;;12.30;95.58;99538.97;10250014;28;20043;-81
2023/10/16 18:41:59;;;;;;;39.17;22.83;;;;;;;12.22;96.25;99518.66;10258435;29;20070;-79
2023/10/16 18:47:00;;;;;;;54.35;27.10;;;;;;;11.80;95.15;99475.22;10267252;28;20446;-80
2023/10/16 18:52:01;;;;;;;44.85;25.05;;;;;;;11.79;95.84;99467.47;10280043;28;20034;-80
2023/10/16 18:57:02;;;;;;;53.15;24.70;;;;;;;12.01;96.05;99524.09;10297501;28;20069;-80
2023/10/16 19:02:03;;;;;;;73.85;32.40;;;;;;;11.64;95.90;99475.56;10296743;28;20063;-79
2023/10/16 19:07:04;;;;;;;82.18;35.92;;;;;;;11.64;95.80;99488.88;10297396;28;20097;-79
2023/10/16 19:12:07;;;;;;;87.28;35.28;;;;;;;11.42;96.56;99464.97;10297424;28;20489;-84
2023/10/16 19:17:11;;;;;;;53.97;30.53;;;;;;;11.24;96.35;99448.69;10296536;28;20074;-82
2023/10/16 19:22:12;;;;;;;70.45;31.15;;;;;;;11.15;96.71;99423.28;10297156;28;20042;-81
2023/10/16 19:27:13;;;;;;;47.58;23.98;;;;;;;11.17;96.69;99442.53;10278337;28;20534;-80
2023/10/16 19:32:14;;;;;;;52.88;22.70;;;;;;;11.62;97.12;99528.13;10296201;28;20494;-82
2023/10/16 19:37:18;;;;;;;65.55;23.77;;;;;;;11.46;96.74;99512.44;10296600;28;20046;-82
2023/10/16 19:42:20;;;;;;;;;;;;;;;11.75;97.34;99538.03;10295388;28;20043;-85
2023/10/16 19:47:24;;;;;;;38.42;20.58;;;;;;;10.16;95.82;99338.28;10295363;28;19938;-85
2023/10/16 19:52:25;;;;;;;49.63;21.70;;;;;;;10.73;95.95;99417.84;10295353;28;20420;-80
2023/10/16 19:57:26;;;;;;;63.60;24.15;;;;;;;11.34;96.40;99517.50;10294941;28;20055;-80
2023/10/16 20:02:27;;;;;;;103.20;23.35;;;;;;;11.61;96.60;99537.13;10295421;28;20049;-80
2023/10/16 20:07:28;;;;;;;56.00;20.38;;;;;;;10.95;96.71;99431.13;10294485;28;20053;-79
2023/10/16 20:12:29;;;;;;;45.80;20.77;;;;;;;11.16;96.73;99465.63;10294048;28;20122;-80
2023/10/16 20:17:30;;;;;;;48.63;19.98;;;;;;;11.79;97.69;99557.94;10293400;28;20062;-80
2023/10/16 20:22:31;;;;;;;37.30;18.40;;;;;;;11.63;97.20;99519.94;10294593;28;20042;-78
2023/10/16 20:27:31;;;;;;;32.95;18.27;;;;;;;11.11;97.96;99444.13;10293056;28;20417;-80
2023/10/16 20:32:32;;;;;;;54.47;19.02;;;;;;;11.62;97.88;99546.75;10292918;28;20125;-80
2023/10/16 20:37:35;;;;;;;41.53;18.40;;;;;;;11.61;97.88;99567.22;10293645;28;20089;-82
2023/10/16 20:42:35;;;;;;;47.55;18.92;;;;;;;11.26;97.68;99528.28;10293576;28;20058;-81
2023/10/16 20:47:36;;;;;;;34.58;16.23;;;;;;;11.13;98.53;99560.91;10293176;28;20066;-80
2023/10/16 20:52:37;;;;;;;33.70;10.90;;;;;;;10.87;99.15;99559.63;10293467;28;20050;-80
2023/10/16 20:57:39;;;;;;;25.83;9.50;;;;;;;10.67;100.00;99524.88;10274799;28;20477;-80
2023/10/16 21:02:44;;;;;;;28.77;9.82;;;;;;;10.98;100.00;99568.94;10292620;28;20039;-81
2023/10/16 21:07:45;;;;;;;21.13;9.88;;;;;;;11.02;100.00;99564.06;10292186;28;20521;-80
2023/10/16 21:12:46;;;;;;;23.67;9.55;;;;;;;11.59;100.00;99637.59;10292249;28;20046;-79
2023/10/16 21:17:48;;;;;;;34.83;9.68;;;;;;;11.78;100.00;99679.47;10291153;28;20136;-79
2023/10/16 21:22:51;;;;;;;31.13;9.68;;;;;;;11.82;100.00;99695.91;10291506;28;20043;-79
2023/10/16 21:27:53;;;;;;;26.77;9.13;;;;;;;11.46;99.92;99625.00;10291527;28;20045;-79
2023/10/16 21:32:54;;;;;;;39.15;10.02;;;;;;;11.92;99.96;99692.94;10292443;28;20483;-79
2023/10/16 21:37:56;;;;;;;24.55;10.20;;;;;;;11.61;99.38;99648.88;10290998;28;20043;-79
2023/10/16 21:42:57;;;;;;;41.70;9.98;;;;;;;11.53;99.31;99670.28;10291627;28;20049;-78
2023/10/16 21:47:59;;;;;;;25.55;8.95;;;;;;;11.64;99.21;99726.44;10291203;28;20409;-79
2023/10/16 21:53:00;;;;;;;21.83;9.57;;;;;;;11.05;99.46;99664.69;10290438;28;20122;-78
2023/10/16 21:58:01;;;;;;;22.35;10.15;;;;;;;11.07;99.28;99692.72;10291430;28;20049;-78
2023/10/16 22:03:03;;;;;;;22.08;10.20;;;;;;;10.63;99.20;99629.84;10292045;28;20047;-78
2023/10/16 22:08:06;;;;;;;32.90;10.20;;;;;;;11.50;99.68;99799.16;10290518;28;20039;-78
2023/10/16 22:13:08;;;;;;;23.95;9.52;;;;;;;11.55;100.00;99830.50;10292458;28;20130;-78
2023/10/16 22:18:10;;;;;;;22.52;9.43;;;;;;;10.92;100.00;99745.91;10298001;28;20141;-78
2023/10/16 22:23:12;;;;;;;20.80;8.55;;;;;;;11.76;99.49;99859.00;10298064;28;20101;-79
2023/10/16 22:28:13;;;;;;;26.05;7.38;;;;;;;12.40;97.30;99872.38;10299077;28;20042;-80
2023/10/16 22:33:15;;;;;;;47.22;7.40;;;;;;;12.66;94.97;99810.47;10297365;28;20046;-81
2023/10/16 22:38:15;;;;;;;20.42;4.45;;;;;;;13.33;94.52;99826.88;10298255;28;20046;-80
2023/10/16 22:43:16;;;;;;;25.50;4.57;;;;;;;14.35;92.82;99922.06;10297326;28;20042;-82
2023/10/16 22:48:18;;;;;;;32.78;3.90;;;;;;;14.69;91.12;99941.69;10297224;28;20046;-78
2023/10/16 22:53:19;;;;;;;24.60;1.23;;;;;;;14.76;90.69;99955.88;10296998;28;20519;-80
2023/10/16 22:58:20;;;;;;;12.40;0.98;;;;;;;14.33;89.77;99918.81;10280258;28;20073;-81
2023/10/16 23:03:21;;;;;;;7.03;0.70;;;;;;;14.37;89.58;99960.13;10297682;28;20046;-79
2023/10/16 23:08:23;;;;;;;9.00;0.95;;;;;;;13.86;89.45;99921.34;10296577;28;20053;-79
2023/10/16 23:13:25;;;;;;;11.07;0.77;;;;;;;14.10;88.70;100010.78;10296917;28;20053;-78
2023/10/16 23:18:26;;;;;;;29.67;1.52;;;;;;;13.83;85.86;100030.38;10296809;28;20415;-80
2023/10/16 23:23:29;;;;;;;20.42;1.58;;;;;;;13.52;84.27;100034.31;10296294;28;20514;-80
2023/10/16 23:28:30;;;;;;;20.77;1.20;;;;;;;13.60;81.96;100098.19;10295569;28;20043;-78
2023/10/16 23:33:43;;;;;;;3.05;0.80;;;;;;;13.38;80.74;100118.75;10296145;28;20502;-81
2023/10/16 23:38:44;;;;;;;9.55;0.80;;;;;;;12.99;79.89;100087.16;10279017;28;20479;-80
2023/10/16 23:43:57;;;;;;;28.67;1.17;;;;;;;13.05;78.88;100154.91;10295875;28;20097;-80
2023/10/16 23:49:08;;;;;;;7.70;0.93;;;;;;;12.32;78.29;100086.41;10295695;28;20051;-79
2023/10/16 23:59:38;;;;;;;9.57;0.88;;;;;;;12.20;78.15;100117.16;10258463;28;20075;-80
